sensor_id;sensor_type;location;lat;lon;timestamp;P1;P2;P0
51052;PMS5003;37093;37.716;-122.060;2023-04-29T00:00:59;1;1;
51052;PMS5003;37093;37.716;-122.060;2023-04-29T00:03:28;3;0;
51052;PMS5003;37093;37.716;-122.060;2023-04-29T00:05:56;1;1;
51052;PMS5003;37093;37.716;-122.060;2023-04-29T00:08:26;1;1;
51052;PMS5003;37093;37.716;-122.060;2023-04-29T00:10:55;2;1;
51052;PMS5003;37093;37.716;-122.060;2023-04-29T00:13:23;3;2;
51052;PMS5003;37093;37.716;-122.060;2023-04-29T00:15:52;1;1;
51052;PMS5003;37093;37.716;-122.060;2023-04-29T00:18:20;1;1;
51052;PMS5003;37093;37.716;-122.060;2023-04-29T00:20:49;4;3;
51052;PMS5003;37093;37.716;-122.060;2023-04-29T00:23:17;2;2;
51052;PMS5003;37093;37.716;-122.060;2023-04-29T00:25:46;1;1;
51052;PMS5003;37093;37.716;-122.060;2023-04-29T00:28:14;1;1;
51052;PMS5003;37093;37.716;-122.060;2023-04-29T00:30:43;3;2;
51052;PMS5003;37093;37.716;-122.060;2023-04-29T00:33:11;1;0;
51052;PMS5003;37093;37.716;-122.060;2023-04-29T00:35:40;1;1;
51052;PMS5003;37093;37.716;-122.060;2023-04-29T00:38:08;3;2;
51052;PMS5003;37093;37.716;-122.060;2023-04-29T00:40:37;4;2;
51052;PMS5003;37093;37.716;-122.060;2023-04-29T00:43:05;2;2;
51052;PMS5003;37093;37.716;-122.060;2023-04-29T00:45:34;2;1;
51052;PMS5003;37093;37.716;-122.060;2023-04-29T00:48:02;2;2;
51052;PMS5003;37093;37.716;-122.060;2023-04-29T00:50:31;1;1;
51052;PMS5003;37093;37.716;-122.060;2023-04-29T00:52:59;2;2;
51052;PMS5003;37093;37.716;-122.060;2023-04-29T00:55:28;3;1;
51052;PMS5003;37093;37.716;-122.060;2023-04-29T00:57:57;2;2;
51052;PMS5003;37093;37.716;-122.060;2023-04-29T01:00:26;1;1;
51052;PMS5003;37093;37.716;-122.060;2023-04-29T01:02:55;1;1;
51052;PMS5003;37093;37.716;-122.060;2023-04-29T01:05:24;3;2;
51052;PMS5003;37093;37.716;-122.060;2023-04-29T01:07:57;3;3;
51052;PMS5003;37093;37.716;-122.060;2023-04-29T01:10:40;1;1;
51052;PMS5003;37093;37.716;-122.060;2023-04-29T01:13:13;1;1;
51052;PMS5003;37093;37.716;-122.060;2023-04-29T01:15:53;1;1;
51052;PMS5003;37093;37.716;-122.060;2023-04-29T01:18:28;1;1;
51052;PMS5003;37093;37.716;-122.060;2023-04-29T01:20:59;2;2;
51052;PMS5003;37093;37.716;-122.060;2023-04-29T01:23:28;2;2;
51052;PMS5003;37093;37.716;-122.060;2023-04-29T01:25:57;1;1;
51052;PMS5003;37093;37.716;-122.060;2023-04-29T01:28:32;2;2;
51052;PMS5003;37093;37.716;-122.060;2023-04-29T01:31:11;1;1;
51052;PMS5003;37093;37.716;-122.060;2023-04-29T01:33:47;1;1;
51052;PMS5003;37093;37.716;-122.060;2023-04-29T01:36:22;1;1;
51052;PMS5003;37093;37.716;-122.060;2023-04-29T01:39:08;2;2;
51052;PMS5003;37093;37.716;-122.060;2023-04-29T01:41:42;1;1;
51052;PMS5003;37093;37.716;-122.060;2023-04-29T01:44:14;3;1;
51052;PMS5003;37093;37.716;-122.060;2023-04-29T01:46:46;1;1;
51052;PMS5003;37093;37.716;-122.060;2023-04-29T01:49:19;2;1;
51052;PMS5003;37093;37.716;-122.060;2023-04-29T01:51:47;1;1;
51052;PMS5003;37093;37.716;-122.060;2023-04-29T01:54:15;5;2;
51052;PMS5003;37093;37.716;-122.060;2023-04-29T01:56:44;1;1;
51052;PMS5003;37093;37.716;-122.060;2023-04-29T01:59:12;2;2;
51052;PMS5003;37093;37.716;-122.060;2023-04-29T02:01:41;3;3;
51052;PMS5003;37093;37.716;-122.060;2023-04-29T02:04:09;3;3;
51052;PMS5003;37093;37.716;-122.060;2023-04-29T02:06:38;0;0;
51052;PMS5003;37093;37.716;-122.060;2023-04-29T02:09:06;2;2;
51052;PMS5003;37093;37.716;-122.060;2023-04-29T02:11:36;2;2;
51052;PMS5003;37093;37.716;-122.060;2023-04-29T02:14:04;2;1;
51052;PMS5003;37093;37.716;-122.060;2023-04-29T02:16:33;2;2;
51052;PMS5003;37093;37.716;-122.060;2023-04-29T02:19:01;2;2;
51052;PMS5003;37093;37.716;-122.060;2023-04-29T02:21:30;2;2;
51052;PMS5003;37093;37.716;-122.060;2023-04-29T02:23:58;3;3;
51052;PMS5003;37093;37.716;-122.060;2023-04-29T02:26:27;3;2;
51052;PMS5003;37093;37.716;-122.060;2023-04-29T02:28:55;2;2;
51052;PMS5003;37093;37.716;-122.060;2023-04-29T02:31:24;2;2;
51052;PMS5003;37093;37.716;-122.060;2023-04-29T02:33:52;3;2;
51052;PMS5003;37093;37.716;-122.060;2023-04-29T02:36:21;1;1;
51052;PMS5003;37093;37.716;-122.060;2023-04-29T02:38:49;2;2;
51052;PMS5003;37093;37.716;-122.060;2023-04-29T02:41:18;4;3;
51052;PMS5003;37093;37.716;-122.060;2023-04-29T02:43:46;3;3;
51052;PMS5003;37093;37.716;-122.060;2023-04-29T02:46:15;4;2;
51052;PMS5003;37093;37.716;-122.060;2023-04-29T02:48:44;3;3;
51052;PMS5003;37093;37.716;-122.060;2023-04-29T02:51:12;3;3;
51052;PMS5003;37093;37.716;-122.060;2023-04-29T02:53:40;4;3;
51052;PMS5003;37093;37.716;-122.060;2023-04-29T02:56:09;2;2;
51052;PMS5003;37093;37.716;-122.060;2023-04-29T02:58:37;4;3;
51052;PMS5003;37093;37.716;-122.060;2023-04-29T03:01:06;3;2;
51052;PMS5003;37093;37.716;-122.060;2023-04-29T03:03:34;2;1;
51052;PMS5003;37093;37.716;-122.060;2023-04-29T03:06:03;3;2;
51052;PMS5003;37093;37.716;-122.060;2023-04-29T03:08:31;2;2;
51052;PMS5003;37093;37.716;-122.060;2023-04-29T03:11:00;4;4;
51052;PMS5003;37093;37.716;-122.060;2023-04-29T03:13:29;3;2;
51052;PMS5003;37093;37.716;-122.060;2023-04-29T03:15:57;2;2;
51052;PMS5003;37093;37.716;-122.060;2023-04-29T03:18:25;2;2;
51052;PMS5003;37093;37.716;-122.060;2023-04-29T03:20:54;4;2;
51052;PMS5003;37093;37.716;-122.060;2023-04-29T03:23:23;4;4;
51052;PMS5003;37093;37.716;-122.060;2023-04-29T03:25:51;1;1;
51052;PMS5003;37093;37.716;-122.060;2023-04-29T03:28:20;5;3;
51052;PMS5003;37093;37.716;-122.060;2023-04-29T03:30:48;3;3;
51052;PMS5003;37093;37.716;-122.060;2023-04-29T03:33:17;5;2;
51052;PMS5003;37093;37.716;-122.060;2023-04-29T03:35:45;3;3;
51052;PMS5003;37093;37.716;-122.060;2023-04-29T03:38:14;2;2;
51052;PMS5003;37093;37.716;-122.060;2023-04-29T03:40:42;1;1;
51052;PMS5003;37093;37.716;-122.060;2023-04-29T03:43:11;4;3;
51052;PMS5003;37093;37.716;-122.060;2023-04-29T03:45:39;4;4;
51052;PMS5003;37093;37.716;-122.060;2023-04-29T03:48:08;4;4;
51052;PMS5003;37093;37.716;-122.060;2023-04-29T03:50:37;3;3;
51052;PMS5003;37093;37.716;-122.060;2023-04-29T03:53:05;3;3;
51052;PMS5003;37093;37.716;-122.060;2023-04-29T03:55:34;1;1;
51052;PMS5003;37093;37.716;-122.060;2023-04-29T03:58:02;3;2;
51052;PMS5003;37093;37.716;-122.060;2023-04-29T04:00:31;4;3;
51052;PMS5003;37093;37.716;-122.060;2023-04-29T04:02:59;4;3;
51052;PMS5003;37093;37.716;-122.060;2023-04-29T04:05:28;3;3;
51052;PMS5003;37093;37.716;-122.060;2023-04-29T04:07:56;7;4;
51052;PMS5003;37093;37.716;-122.060;2023-04-29T04:10:25;4;4;
51052;PMS5003;37093;37.716;-122.060;2023-04-29T04:12:54;2;2;
51052;PMS5003;37093;37.716;-122.060;2023-04-29T04:15:23;4;3;
51052;PMS5003;37093;37.716;-122.060;2023-04-29T04:17:51;3;2;
51052;PMS5003;37093;37.716;-122.060;2023-04-29T04:20:19;3;3;
51052;PMS5003;37093;37.716;-122.060;2023-04-29T04:22:48;3;3;
51052;PMS5003;37093;37.716;-122.060;2023-04-29T04:25:16;3;3;
51052;PMS5003;37093;37.716;-122.060;2023-04-29T04:27:45;2;2;
51052;PMS5003;37093;37.716;-122.060;2023-04-29T04:30:14;3;3;
51052;PMS5003;37093;37.716;-122.060;2023-04-29T04:32:42;3;3;
51052;PMS5003;37093;37.716;-122.060;2023-04-29T04:35:11;5;3;
51052;PMS5003;37093;37.716;-122.060;2023-04-29T04:37:39;4;2;
51052;PMS5003;37093;37.716;-122.060;2023-04-29T04:40:08;5;3;
51052;PMS5003;37093;37.716;-122.060;2023-04-29T04:42:37;5;3;
51052;PMS5003;37093;37.716;-122.060;2023-04-29T04:45:06;4;4;
51052;PMS5003;37093;37.716;-122.060;2023-04-29T04:47:35;3;3;
51052;PMS5003;37093;37.716;-122.060;2023-04-29T04:50:06;3;3;
51052;PMS5003;37093;37.716;-122.060;2023-04-29T04:52:35;3;3;
51052;PMS5003;37093;37.716;-122.060;2023-04-29T04:55:04;4;3;
51052;PMS5003;37093;37.716;-122.060;2023-04-29T04:57:33;4;4;
51052;PMS5003;37093;37.716;-122.060;2023-04-29T05:00:02;6;5;
51052;PMS5003;37093;37.716;-122.060;2023-04-29T05:02:30;3;3;
51052;PMS5003;37093;37.716;-122.060;2023-04-29T05:04:59;6;5;
51052;PMS5003;37093;37.716;-122.060;2023-04-29T05:07:27;6;4;
51052;PMS5003;37093;37.716;-122.060;2023-04-29T05:09:56;5;5;
51052;PMS5003;37093;37.716;-122.060;2023-04-29T05:12:24;5;5;
51052;PMS5003;37093;37.716;-122.060;2023-04-29T05:14:54;5;4;
51052;PMS5003;37093;37.716;-122.060;2023-04-29T05:17:23;4;2;
51052;PMS5003;37093;37.716;-122.060;2023-04-29T05:19:52;3;3;
51052;PMS5003;37093;37.716;-122.060;2023-04-29T05:22:20;6;4;
51052;PMS5003;37093;37.716;-122.060;2023-04-29T05:24:49;4;4;
51052;PMS5003;37093;37.716;-122.060;2023-04-29T05:27:18;5;3;
51052;PMS5003;37093;37.716;-122.060;2023-04-29T05:29:46;3;3;
51052;PMS5003;37093;37.716;-122.060;2023-04-29T05:32:15;7;4;
51052;PMS5003;37093;37.716;-122.060;2023-04-29T05:34:43;3;3;
51052;PMS5003;37093;37.716;-122.060;2023-04-29T05:37:12;4;4;
51052;PMS5003;37093;37.716;-122.060;2023-04-29T05:39:40;5;3;
51052;PMS5003;37093;37.716;-122.060;2023-04-29T05:42:09;5;3;
51052;PMS5003;37093;37.716;-122.060;2023-04-29T05:44:38;5;5;
51052;PMS5003;37093;37.716;-122.060;2023-04-29T05:47:06;5;5;
51052;PMS5003;37093;37.716;-122.060;2023-04-29T05:49:35;5;3;
51052;PMS5003;37093;37.716;-122.060;2023-04-29T05:52:03;8;5;
51052;PMS5003;37093;37.716;-122.060;2023-04-29T05:54:32;5;5;
51052;PMS5003;37093;37.716;-122.060;2023-04-29T05:57:01;8;6;
51052;PMS5003;37093;37.716;-122.060;2023-04-29T05:59:29;5;4;
51052;PMS5003;37093;37.716;-122.060;2023-04-29T06:01:59;4;4;
51052;PMS5003;37093;37.716;-122.060;2023-04-29T06:04:27;7;5;
51052;PMS5003;37093;37.716;-122.060;2023-04-29T06:06:56;5;5;
51052;PMS5003;37093;37.716;-122.060;2023-04-29T06:09:24;5;5;
51052;PMS5003;37093;37.716;-122.060;2023-04-29T06:11:53;4;4;
51052;PMS5003;37093;37.716;-122.060;2023-04-29T06:14:22;5;5;
51052;PMS5003;37093;37.716;-122.060;2023-04-29T06:16:50;3;3;
51052;PMS5003;37093;37.716;-122.060;2023-04-29T06:19:19;8;4;
51052;PMS5003;37093;37.716;-122.060;2023-04-29T06:21:47;6;4;
51052;PMS5003;37093;37.716;-122.060;2023-04-29T06:24:16;6;3;
51052;PMS5003;37093;37.716;-122.060;2023-04-29T06:26:44;4;4;
51052;PMS5003;37093;37.716;-122.060;2023-04-29T06:29:13;4;4;
51052;PMS5003;37093;37.716;-122.060;2023-04-29T06:31:42;7;7;
51052;PMS5003;37093;37.716;-122.060;2023-04-29T06:34:10;9;6;
51052;PMS5003;37093;37.716;-122.060;2023-04-29T06:36:39;4;4;
51052;PMS5003;37093;37.716;-122.060;2023-04-29T06:39:07;6;6;
51052;PMS5003;37093;37.716;-122.060;2023-04-29T06:41:36;8;5;
51052;PMS5003;37093;37.716;-122.060;2023-04-29T06:44:05;8;7;
51052;PMS5003;37093;37.716;-122.060;2023-04-29T06:46:33;7;6;
51052;PMS5003;37093;37.716;-122.060;2023-04-29T06:49:01;7;7;
51052;PMS5003;37093;37.716;-122.060;2023-04-29T06:51:30;6;5;
51052;PMS5003;37093;37.716;-122.060;2023-04-29T06:53:59;9;5;
51052;PMS5003;37093;37.716;-122.060;2023-04-29T06:56:27;7;7;
51052;PMS5003;37093;37.716;-122.060;2023-04-29T06:58:55;7;6;
51052;PMS5003;37093;37.716;-122.060;2023-04-29T07:01:11;3;3;
51052;PMS5003;37093;37.716;-122.060;2023-04-29T07:03:40;7;4;
51052;PMS5003;37093;37.716;-122.060;2023-04-29T07:06:09;8;6;
51052;PMS5003;37093;37.716;-122.060;2023-04-29T07:08:37;5;5;
51052;PMS5003;37093;37.716;-122.060;2023-04-29T07:11:06;6;5;
51052;PMS5003;37093;37.716;-122.060;2023-04-29T07:13:34;5;5;
51052;PMS5003;37093;37.716;-122.060;2023-04-29T07:16:03;7;5;
51052;PMS5003;37093;37.716;-122.060;2023-04-29T07:18:40;7;6;
51052;PMS5003;37093;37.716;-122.060;2023-04-29T07:21:09;7;7;
51052;PMS5003;37093;37.716;-122.060;2023-04-29T07:23:37;8;5;
51052;PMS5003;37093;37.716;-122.060;2023-04-29T07:26:10;5;4;
51052;PMS5003;37093;37.716;-122.060;2023-04-29T07:28:39;5;4;
51052;PMS5003;37093;37.716;-122.060;2023-04-29T07:31:07;5;5;
51052;PMS5003;37093;37.716;-122.060;2023-04-29T07:33:36;7;6;
51052;PMS5003;37093;37.716;-122.060;2023-04-29T07:36:05;6;6;
51052;PMS5003;37093;37.716;-122.060;2023-04-29T07:38:33;7;7;
51052;PMS5003;37093;37.716;-122.060;2023-04-29T07:41:02;12;5;
51052;PMS5003;37093;37.716;-122.060;2023-04-29T07:43:30;7;6;
51052;PMS5003;37093;37.716;-122.060;2023-04-29T07:45:59;8;6;
51052;PMS5003;37093;37.716;-122.060;2023-04-29T07:48:28;7;6;
51052;PMS5003;37093;37.716;-122.060;2023-04-29T07:50:56;9;6;
51052;PMS5003;37093;37.716;-122.060;2023-04-29T07:53:24;7;7;
51052;PMS5003;37093;37.716;-122.060;2023-04-29T07:55:53;7;6;
51052;PMS5003;37093;37.716;-122.060;2023-04-29T07:58:22;11;6;
51052;PMS5003;37093;37.716;-122.060;2023-04-29T08:00:50;8;5;
51052;PMS5003;37093;37.716;-122.060;2023-04-29T08:03:19;5;5;
51052;PMS5003;37093;37.716;-122.060;2023-04-29T08:05:47;7;7;
51052;PMS5003;37093;37.716;-122.060;2023-04-29T08:08:16;7;7;
51052;PMS5003;37093;37.716;-122.060;2023-04-29T08:10:44;7;5;
51052;PMS5003;37093;37.716;-122.060;2023-04-29T08:13:12;10;5;
51052;PMS5003;37093;37.716;-122.060;2023-04-29T08:15:41;6;5;
51052;PMS5003;37093;37.716;-122.060;2023-04-29T08:18:15;8;6;
51052;PMS5003;37093;37.716;-122.060;2023-04-29T08:20:43;6;6;
51052;PMS5003;37093;37.716;-122.060;2023-04-29T08:23:13;16;6;
51052;PMS5003;37093;37.716;-122.060;2023-04-29T08:25:42;7;7;
51052;PMS5003;37093;37.716;-122.060;2023-04-29T08:28:10;9;6;
51052;PMS5003;37093;37.716;-122.060;2023-04-29T08:30:39;8;5;
51052;PMS5003;37093;37.716;-122.060;2023-04-29T08:33:07;7;6;
51052;PMS5003;37093;37.716;-122.060;2023-04-29T08:35:36;7;6;
51052;PMS5003;37093;37.716;-122.060;2023-04-29T08:38:04;8;6;
51052;PMS5003;37093;37.716;-122.060;2023-04-29T08:40:33;11;7;
51052;PMS5003;37093;37.716;-122.060;2023-04-29T08:43:02;10;9;
51052;PMS5003;37093;37.716;-122.060;2023-04-29T08:45:31;6;5;
51052;PMS5003;37093;37.716;-122.060;2023-04-29T08:48:02;8;8;
51052;PMS5003;37093;37.716;-122.060;2023-04-29T08:50:32;10;7;
51052;PMS5003;37093;37.716;-122.060;2023-04-29T08:53:05;6;6;
51052;PMS5003;37093;37.716;-122.060;2023-04-29T08:55:34;10;8;
51052;PMS5003;37093;37.716;-122.060;2023-04-29T08:58:07;9;9;
51052;PMS5003;37093;37.716;-122.060;2023-04-29T09:00:35;11;9;
51052;PMS5003;37093;37.716;-122.060;2023-04-29T09:03:09;8;7;
51052;PMS5003;37093;37.716;-122.060;2023-04-29T09:05:44;7;7;
51052;PMS5003;37093;37.716;-122.060;2023-04-29T09:08:15;11;9;
51052;PMS5003;37093;37.716;-122.060;2023-04-29T09:10:45;8;7;
51052;PMS5003;37093;37.716;-122.060;2023-04-29T09:13:22;9;8;
51052;PMS5003;37093;37.716;-122.060;2023-04-29T09:15:51;8;7;
51052;PMS5003;37093;37.716;-122.060;2023-04-29T09:18:52;11;7;
51052;PMS5003;37093;37.716;-122.060;2023-04-29T09:21:21;10;9;
51052;PMS5003;37093;37.716;-122.060;2023-04-29T09:23:51;8;5;
51052;PMS5003;37093;37.716;-122.060;2023-04-29T09:26:21;7;7;
51052;PMS5003;37093;37.716;-122.060;2023-04-29T09:29:05;9;8;
51052;PMS5003;37093;37.716;-122.060;2023-04-29T09:31:34;7;7;
51052;PMS5003;37093;37.716;-122.060;2023-04-29T09:34:03;11;9;
51052;PMS5003;37093;37.716;-122.060;2023-04-29T09:36:35;22;11;
51052;PMS5003;37093;37.716;-122.060;2023-04-29T09:39:06;11;8;
51052;PMS5003;37093;37.716;-122.060;2023-04-29T09:41:35;8;8;
51052;PMS5003;37093;37.716;-122.060;2023-04-29T09:44:05;12;12;
51052;PMS5003;37093;37.716;-122.060;2023-04-29T09:46:34;10;8;
51052;PMS5003;37093;37.716;-122.060;2023-04-29T09:49:02;10;9;
51052;PMS5003;37093;37.716;-122.060;2023-04-29T09:51:53;10;9;
51052;PMS5003;37093;37.716;-122.060;2023-04-29T09:54:23;20;8;
51052;PMS5003;37093;37.716;-122.060;2023-04-29T09:56:54;11;9;
51052;PMS5003;37093;37.716;-122.060;2023-04-29T09:59:23;13;9;
51052;PMS5003;37093;37.716;-122.060;2023-04-29T10:01:53;15;11;
51052;PMS5003;37093;37.716;-122.060;2023-04-29T10:04:23;17;13;
51052;PMS5003;37093;37.716;-122.060;2023-04-29T10:06:53;21;13;
51052;PMS5003;37093;37.716;-122.060;2023-04-29T10:09:22;16;12;
51052;PMS5003;37093;37.716;-122.060;2023-04-29T10:11:51;12;10;
51052;PMS5003;37093;37.716;-122.060;2023-04-29T10:14:21;13;11;
51052;PMS5003;37093;37.716;-122.060;2023-04-29T10:16:53;11;8;
51052;PMS5003;37093;37.716;-122.060;2023-04-29T10:19:31;9;7;
51052;PMS5003;37093;37.716;-122.060;2023-04-29T10:22:06;15;13;
51052;PMS5003;37093;37.716;-122.060;2023-04-29T10:24:38;14;11;
51052;PMS5003;37093;37.716;-122.060;2023-04-29T10:27:08;13;12;
51052;PMS5003;37093;37.716;-122.060;2023-04-29T10:29:39;16;12;
51052;PMS5003;37093;37.716;-122.060;2023-04-29T10:32:09;26;14;
51052;PMS5003;37093;37.716;-122.060;2023-04-29T10:34:40;12;11;
51052;PMS5003;37093;37.716;-122.060;2023-04-29T10:37:09;22;12;
51052;PMS5003;37093;37.716;-122.060;2023-04-29T10:39:51;15;11;
51052;PMS5003;37093;37.716;-122.060;2023-04-29T10:42:29;16;14;
51052;PMS5003;37093;37.716;-122.060;2023-04-29T10:45:20;15;13;
51052;PMS5003;37093;37.716;-122.060;2023-04-29T10:48:22;14;12;
51052;PMS5003;37093;37.716;-122.060;2023-04-29T10:51:06;13;13;
51052;PMS5003;37093;37.716;-122.060;2023-04-29T10:53:36;16;14;
51052;PMS5003;37093;37.716;-122.060;2023-04-29T10:56:43;18;15;
51052;PMS5003;37093;37.716;-122.060;2023-04-29T10:59:15;22;15;
51052;PMS5003;37093;37.716;-122.060;2023-04-29T11:01:47;25;14;
51052;PMS5003;37093;37.716;-122.060;2023-04-29T11:04:16;14;14;
51052;PMS5003;37093;37.716;-122.060;2023-04-29T11:06:50;24;15;
51052;PMS5003;37093;37.716;-122.060;2023-04-29T11:09:20;27;17;
51052;PMS5003;37093;37.716;-122.060;2023-04-29T11:11:59;26;16;
51052;PMS5003;37093;37.716;-122.060;2023-04-29T11:14:30;16;16;
51052;PMS5003;37093;37.716;-122.060;2023-04-29T11:17:02;17;16;
51052;PMS5003;37093;37.716;-122.060;2023-04-29T11:19:32;18;17;
51052;PMS5003;37093;37.716;-122.060;2023-04-29T11:22:07;25;15;
51052;PMS5003;37093;37.716;-122.060;2023-04-29T11:24:56;16;15;
51052;PMS5003;37093;37.716;-122.060;2023-04-29T11:27:26;21;16;
51052;PMS5003;37093;37.716;-122.060;2023-04-29T11:29:57;29;17;
51052;PMS5003;37093;37.716;-122.060;2023-04-29T11:32:27;17;17;
51052;PMS5003;37093;37.716;-122.060;2023-04-29T11:35:06;29;17;
51052;PMS5003;37093;37.716;-122.060;2023-04-29T11:37:35;24;16;
51052;PMS5003;37093;37.716;-122.060;2023-04-29T11:40:05;30;17;
51052;PMS5003;37093;37.716;-122.060;2023-04-29T11:42:35;16;14;
51052;PMS5003;37093;37.716;-122.060;2023-04-29T11:45:07;16;14;
51052;PMS5003;37093;37.716;-122.060;2023-04-29T11:47:36;27;20;
51052;PMS5003;37093;37.716;-122.060;2023-04-29T11:50:08;18;17;
51052;PMS5003;37093;37.716;-122.060;2023-04-29T11:52:37;20;19;
51052;PMS5003;37093;37.716;-122.060;2023-04-29T11:55:07;20;19;
51052;PMS5003;37093;37.716;-122.060;2023-04-29T11:57:37;24;22;
51052;PMS5003;37093;37.716;-122.060;2023-04-29T12:00:08;26;18;
51052;PMS5003;37093;37.716;-122.060;2023-04-29T12:02:38;27;17;
51052;PMS5003;37093;37.716;-122.060;2023-04-29T12:05:10;23;19;
51052;PMS5003;37093;37.716;-122.060;2023-04-29T12:07:38;21;18;
51052;PMS5003;37093;37.716;-122.060;2023-04-29T12:10:07;20;18;
51052;PMS5003;37093;37.716;-122.060;2023-04-29T12:12:36;28;21;
51052;PMS5003;37093;37.716;-122.060;2023-04-29T12:15:06;19;18;
51052;PMS5003;37093;37.716;-122.060;2023-04-29T12:17:35;20;19;
51052;PMS5003;37093;37.716;-122.060;2023-04-29T12:20:05;29;21;
51052;PMS5003;37093;37.716;-122.060;2023-04-29T12:22:34;38;21;
51052;PMS5003;37093;37.716;-122.060;2023-04-29T12:25:02;33;21;
51052;PMS5003;37093;37.716;-122.060;2023-04-29T12:27:32;22;21;
51052;PMS5003;37093;37.716;-122.060;2023-04-29T12:30:01;38;27;
51052;PMS5003;37093;37.716;-122.060;2023-04-29T12:32:32;26;25;
51052;PMS5003;37093;37.716;-122.060;2023-04-29T12:35:01;27;23;
51052;PMS5003;37093;37.716;-122.060;2023-04-29T12:37:30;22;21;
51052;PMS5003;37093;37.716;-122.060;2023-04-29T12:39:59;30;20;
51052;PMS5003;37093;37.716;-122.060;2023-04-29T12:42:31;37;24;
51052;PMS5003;37093;37.716;-122.060;2023-04-29T12:45:00;27;22;
51052;PMS5003;37093;37.716;-122.060;2023-04-29T12:47:31;36;24;
51052;PMS5003;37093;37.716;-122.060;2023-04-29T12:49:59;37;24;
51052;PMS5003;37093;37.716;-122.060;2023-04-29T12:52:28;42;27;
51052;PMS5003;37093;37.716;-122.060;2023-04-29T12:54:56;32;24;
51052;PMS5003;37093;37.716;-122.060;2023-04-29T12:57:27;31;25;
51052;PMS5003;37093;37.716;-122.060;2023-04-29T12:59:55;33;23;
51052;PMS5003;37093;37.716;-122.060;2023-04-29T13:02:24;45;27;
51052;PMS5003;37093;37.716;-122.060;2023-04-29T13:04:52;39;26;
51052;PMS5003;37093;37.716;-122.060;2023-04-29T13:07:21;28;25;
51052;PMS5003;37093;37.716;-122.060;2023-04-29T13:09:49;30;26;
51052;PMS5003;37093;37.716;-122.060;2023-04-29T13:12:18;29;27;
51052;PMS5003;37093;37.716;-122.060;2023-04-29T13:14:46;35;25;
51052;PMS5003;37093;37.716;-122.060;2023-04-29T13:17:14;25;24;
51052;PMS5003;37093;37.716;-122.060;2023-04-29T13:19:42;39;27;
51052;PMS5003;37093;37.716;-122.060;2023-04-29T13:22:11;33;27;
51052;PMS5003;37093;37.716;-122.060;2023-04-29T13:24:39;34;30;
51052;PMS5003;37093;37.716;-122.060;2023-04-29T13:27:08;35;26;
51052;PMS5003;37093;37.716;-122.060;2023-04-29T13:29:36;39;24;
51052;PMS5003;37093;37.716;-122.060;2023-04-29T13:32:05;31;28;
51052;PMS5003;37093;37.716;-122.060;2023-04-29T13:34:33;48;33;
51052;PMS5003;37093;37.716;-122.060;2023-04-29T13:37:01;34;27;
51052;PMS5003;37093;37.716;-122.060;2023-04-29T13:39:30;37;25;
51052;PMS5003;37093;37.716;-122.060;2023-04-29T13:41:58;37;28;
51052;PMS5003;37093;37.716;-122.060;2023-04-29T13:44:26;38;26;
51052;PMS5003;37093;37.716;-122.060;2023-04-29T13:46:54;35;26;
51052;PMS5003;37093;37.716;-122.060;2023-04-29T13:49:22;28;24;
51052;PMS5003;37093;37.716;-122.060;2023-04-29T13:51:51;25;23;
51052;PMS5003;37093;37.716;-122.060;2023-04-29T13:54:19;28;25;
51052;PMS5003;37093;37.716;-122.060;2023-04-29T13:56:48;37;24;
51052;PMS5003;37093;37.716;-122.060;2023-04-29T13:59:16;38;26;
51052;PMS5003;37093;37.716;-122.060;2023-04-29T14:01:45;40;26;
51052;PMS5003;37093;37.716;-122.060;2023-04-29T14:04:13;29;22;
51052;PMS5003;37093;37.716;-122.060;2023-04-29T14:06:42;35;24;
51052;PMS5003;37093;37.716;-122.060;2023-04-29T14:09:09;33;22;
51052;PMS5003;37093;37.716;-122.060;2023-04-29T14:11:37;23;21;
51052;PMS5003;37093;37.716;-122.060;2023-04-29T14:14:06;23;21;
51052;PMS5003;37093;37.716;-122.060;2023-04-29T14:16:34;23;21;
51052;PMS5003;37093;37.716;-122.060;2023-04-29T14:19:03;38;21;
51052;PMS5003;37093;37.716;-122.060;2023-04-29T14:21:32;31;21;
51052;PMS5003;37093;37.716;-122.060;2023-04-29T14:24:01;28;21;
51052;PMS5003;37093;37.716;-122.060;2023-04-29T14:26:29;30;19;
51052;PMS5003;37093;37.716;-122.060;2023-04-29T14:28:58;30;20;
51052;PMS5003;37093;37.716;-122.060;2023-04-29T14:31:27;25;21;
51052;PMS5003;37093;37.716;-122.060;2023-04-29T14:33:56;25;23;
51052;PMS5003;37093;37.716;-122.060;2023-04-29T14:36:25;24;20;
51052;PMS5003;37093;37.716;-122.060;2023-04-29T14:38:53;23;22;
51052;PMS5003;37093;37.716;-122.060;2023-04-29T14:41:21;23;20;
51052;PMS5003;37093;37.716;-122.060;2023-04-29T14:43:50;22;19;
51052;PMS5003;37093;37.716;-122.060;2023-04-29T14:46:19;33;21;
51052;PMS5003;37093;37.716;-122.060;2023-04-29T14:48:47;19;17;
51052;PMS5003;37093;37.716;-122.060;2023-04-29T14:51:15;19;17;
51052;PMS5003;37093;37.716;-122.060;2023-04-29T14:53:44;26;23;
51052;PMS5003;37093;37.716;-122.060;2023-04-29T14:56:12;21;19;
51052;PMS5003;37093;37.716;-122.060;2023-04-29T14:58:42;21;18;
51052;PMS5003;37093;37.716;-122.060;2023-04-29T15:01:11;16;16;
51052;PMS5003;37093;37.716;-122.060;2023-04-29T15:03:39;19;18;
51052;PMS5003;37093;37.716;-122.060;2023-04-29T15:06:07;19;17;
51052;PMS5003;37093;37.716;-122.060;2023-04-29T15:08:36;19;16;
51052;PMS5003;37093;37.716;-122.060;2023-04-29T15:11:04;18;14;
51052;PMS5003;37093;37.716;-122.060;2023-04-29T15:13:33;15;15;
51052;PMS5003;37093;37.716;-122.060;2023-04-29T15:16:01;19;18;
51052;PMS5003;37093;37.716;-122.060;2023-04-29T15:18:30;26;15;
51052;PMS5003;37093;37.716;-122.060;2023-04-29T15:20:58;19;15;
51052;PMS5003;37093;37.716;-122.060;2023-04-29T15:23:26;17;14;
51052;PMS5003;37093;37.716;-122.060;2023-04-29T15:25:55;24;14;
51052;PMS5003;37093;37.716;-122.060;2023-04-29T15:28:23;19;17;
51052;PMS5003;37093;37.716;-122.060;2023-04-29T15:30:52;21;15;
51052;PMS5003;37093;37.716;-122.060;2023-04-29T15:33:20;14;13;
51052;PMS5003;37093;37.716;-122.060;2023-04-29T15:35:49;18;15;
51052;PMS5003;37093;37.716;-122.060;2023-04-29T15:38:17;27;17;
51052;PMS5003;37093;37.716;-122.060;2023-04-29T15:40:45;20;15;
51052;PMS5003;37093;37.716;-122.060;2023-04-29T15:43:14;21;17;
51052;PMS5003;37093;37.716;-122.060;2023-04-29T15:45:42;13;12;
51052;PMS5003;37093;37.716;-122.060;2023-04-29T15:48:10;27;18;
51052;PMS5003;37093;37.716;-122.060;2023-04-29T15:50:39;19;17;
51052;PMS5003;37093;37.716;-122.060;2023-04-29T15:53:08;17;14;
51052;PMS5003;37093;37.716;-122.060;2023-04-29T15:55:36;16;16;
51052;PMS5003;37093;37.716;-122.060;2023-04-29T15:58:04;15;13;
51052;PMS5003;37093;37.716;-122.060;2023-04-29T16:00:33;12;11;
51052;PMS5003;37093;37.716;-122.060;2023-04-29T16:03:02;14;13;
51052;PMS5003;37093;37.716;-122.060;2023-04-29T16:05:31;10;9;